<?xml version="1.0" encoding="utf-8"?>
<gpx xmlns:xsi="http://www.w3.org/2001/XMLSchema-instance" xmlns:xsd="http://www.w3.org/2001/XMLSchema" version="1.1" creator="Shapelink.com" xmlns="http://www.topografix.com/GPX/1/1" xmlns:gpxtpx="http://www.garmin.com/xmlschemas/TrackPointExtension/v1">
  <metadata>
    <name>Gåing 0.37 km, 2012-05-02</name>
    <desc></desc>
    <author><name>Mikael Blom</name></author> 
    <time>2012-05-02T18:53:02Z</time>
  </metadata>
  <trk>
    <name>Gåing 0.37 km, 2012-05-02</name>
    <trkseg>
      <trkpt lat="59.9758274" lon="17.7389925">
        <ele>35.2255</ele>
        <time>2012-05-02T18:53:02Z</time>
      </trkpt>
      <trkpt lat="59.975899" lon="17.7390849">
        <ele>32.8223</ele>
        <time>2012-05-02T18:53:09Z</time>
      </trkpt>
      <trkpt lat="59.9759477" lon="17.7391726">
        <ele>32.3416</ele>
        <time>2012-05-02T18:53:14Z</time>
      </trkpt>
      <trkpt lat="59.9759602" lon="17.7391848">
        <ele>32.3416</ele>
        <time>2012-05-02T18:53:15Z</time>
      </trkpt>
      <trkpt lat="59.9759908" lon="17.7392284">
        <ele>31.8607</ele>
        <time>2012-05-02T18:53:18Z</time>
      </trkpt>
      <trkpt lat="59.9760741" lon="17.7393797">
        <ele>31.8607</ele>
        <time>2012-05-02T18:53:26Z</time>
      </trkpt>
      <trkpt lat="59.9760879" lon="17.7393943">
        <ele>32.3416</ele>
        <time>2012-05-02T18:53:27Z</time>
      </trkpt>
      <trkpt lat="59.9761557" lon="17.7395243">
        <ele>32.3416</ele>
        <time>2012-05-02T18:53:34Z</time>
      </trkpt>
      <trkpt lat="59.9761828" lon="17.7396209">
        <ele>31.3801</ele>
        <time>2012-05-02T18:53:39Z</time>
      </trkpt>
      <trkpt lat="59.9762334" lon="17.7396977">
        <ele>32.8223</ele>
        <time>2012-05-02T18:53:44Z</time>
      </trkpt>
      <trkpt lat="59.9763138" lon="17.7397481">
        <ele>32.3416</ele>
        <time>2012-05-02T18:53:50Z</time>
      </trkpt>
      <trkpt lat="59.9764015" lon="17.7396891">
        <ele>32.8223</ele>
        <time>2012-05-02T18:53:57Z</time>
      </trkpt>
      <trkpt lat="59.9764271" lon="17.7396485">
        <ele>33.3029</ele>
        <time>2012-05-02T18:53:59Z</time>
      </trkpt>
      <trkpt lat="59.9764657" lon="17.7395456">
        <ele>33.7834</ele>
        <time>2012-05-02T18:54:04Z</time>
      </trkpt>
      <trkpt lat="59.9765741" lon="17.7394363">
        <ele>33.3029</ele>
        <time>2012-05-02T18:54:12Z</time>
      </trkpt>
      <trkpt lat="59.9766832" lon="17.7393489">
        <ele>33.7834</ele>
        <time>2012-05-02T18:54:20Z</time>
      </trkpt>
      <trkpt lat="59.9767728" lon="17.7393061">
        <ele>34.7449</ele>
        <time>2012-05-02T18:54:26Z</time>
      </trkpt>
      <trkpt lat="59.9768562" lon="17.7392647">
        <ele>35.7061</ele>
        <time>2012-05-02T18:54:32Z</time>
      </trkpt>
      <trkpt lat="59.9769105" lon="17.7392465">
        <ele>34.7449</ele>
        <time>2012-05-02T18:54:36Z</time>
      </trkpt>
      <trkpt lat="59.9769774" lon="17.7392309">
        <ele>34.2642</ele>
        <time>2012-05-02T18:54:41Z</time>
      </trkpt>
      <trkpt lat="59.9770493" lon="17.7391931">
        <ele>35.2255</ele>
        <time>2012-05-02T18:54:47Z</time>
      </trkpt>
      <trkpt lat="59.9770778" lon="17.7391843">
        <ele>35.2255</ele>
        <time>2012-05-02T18:54:49Z</time>
      </trkpt>
      <trkpt lat="59.9771811" lon="17.7391196">
        <ele>36.6675</ele>
        <time>2012-05-02T18:54:57Z</time>
      </trkpt>
      <trkpt lat="59.9772852" lon="17.7390666">
        <ele>37.1481</ele>
        <time>2012-05-02T18:55:05Z</time>
      </trkpt>
      <trkpt lat="59.9773172" lon="17.7390477">
        <ele>36.6675</ele>
        <time>2012-05-02T18:55:08Z</time>
      </trkpt>
      <trkpt lat="59.9774013" lon="17.7390155">
        <ele>36.1868</ele>
        <time>2012-05-02T18:55:15Z</time>
      </trkpt>
      <trkpt lat="59.977452" lon="17.7389938">
        <ele>36.1868</ele>
        <time>2012-05-02T18:55:19Z</time>
      </trkpt>
      <trkpt lat="59.9775404" lon="17.7389455">
        <ele>37.6287</ele>
        <time>2012-05-02T18:55:25Z</time>
      </trkpt>
      <trkpt lat="59.9776453" lon="17.7389331">
        <ele>38.5901</ele>
        <time>2012-05-02T18:55:32Z</time>
      </trkpt>
      <trkpt lat="59.9777326" lon="17.7389223">
        <ele>38.5901</ele>
        <time>2012-05-02T18:55:39Z</time>
      </trkpt>
      <trkpt lat="59.9777752" lon="17.7389361">
        <ele>38.5901</ele>
        <time>2012-05-02T18:55:42Z</time>
      </trkpt>
      <trkpt lat="59.9778517" lon="17.7389585">
        <ele>40.0321</ele>
        <time>2012-05-02T18:55:48Z</time>
      </trkpt>
      <trkpt lat="59.9779151" lon="17.739">
        <ele>39.5513</ele>
        <time>2012-05-02T18:55:53Z</time>
      </trkpt>
      <trkpt lat="59.9780117" lon="17.7390347">
        <ele>40.5128</ele>
        <time>2012-05-02T18:56:00Z</time>
      </trkpt>
      <trkpt lat="59.9780834" lon="17.7390904">
        <ele>40.5128</ele>
        <time>2012-05-02T18:56:06Z</time>
      </trkpt>
      <trkpt lat="59.9780937" lon="17.739102">
        <ele>40.5128</ele>
        <time>2012-05-02T18:56:07Z</time>
      </trkpt>
      <trkpt lat="59.9781745" lon="17.7391399">
        <ele>39.5513</ele>
        <time>2012-05-02T18:56:14Z</time>
      </trkpt>
      <trkpt lat="59.9782134" lon="17.7391486">
        <ele>39.0707</ele>
        <time>2012-05-02T18:56:17Z</time>
      </trkpt>
      <trkpt lat="59.9783049" lon="17.7391943">
        <ele>40.5128</ele>
        <time>2012-05-02T18:56:23Z</time>
      </trkpt>
      <trkpt lat="59.9783708" lon="17.739204">
        <ele>40.5128</ele>
        <time>2012-05-02T18:56:28Z</time>
      </trkpt>
      <trkpt lat="59.9784309" lon="17.7392072">
        <ele>41.474</ele>
        <time>2012-05-02T18:56:32Z</time>
      </trkpt>
      <trkpt lat="59.9784559" lon="17.739203">
        <ele>40.9934</ele>
        <time>2012-05-02T18:56:34Z</time>
      </trkpt>
      <trkpt lat="59.9785128" lon="17.7392094">
        <ele>40.9934</ele>
        <time>2012-05-02T18:56:38Z</time>
      </trkpt>
      <trkpt lat="59.9785784" lon="17.7392106">
        <ele>41.474</ele>
        <time>2012-05-02T18:56:42Z</time>
      </trkpt>
      <trkpt lat="59.9786604" lon="17.7392417">
        <ele>40.5128</ele>
        <time>2012-05-02T18:56:48Z</time>
      </trkpt>
      <trkpt lat="59.9787059" lon="17.7392892">
        <ele>40.0321</ele>
        <time>2012-05-02T18:56:51Z</time>
      </trkpt>
      <trkpt lat="59.9788023" lon="17.7393384">
        <ele>37.6287</ele>
        <time>2012-05-02T18:56:59Z</time>
      </trkpt>
    </trkseg>
  </trk>
</gpx>